Home > Products > Valid Products > MTR

000
SAUS45 KFGZ 220958
MTRFLG
METAR KFLG 220957Z AUTO 00000KT 10SM OVC005 12/11 A3027 RMK AO2
RAE03B39E50 CIG 003V007 SLP174 P0001 T01170106 TSNO





000
SAUS45 KFGZ 220950
MTRFLG
SPECI KFLG 220948Z AUTO 00000KT 10SM -RA OVC005 12/11 A3027 RMK AO2
RAE03B39 CIG 002V009 P0001 T01170106 TSNO





000
SAUS45 KFGZ 220941
MTRFLG
SPECI KFLG 220940Z AUTO 00000KT 10SM -RA BKN003 OVC007 12/11 A3027
RMK AO2 RAE03B39 P0001 T01170106 TSNO





000
SAUS45 KFGZ 220932
MTRFLG
SPECI KFLG 220931Z AUTO 00000KT 10SM SCT003 BKN009 OVC065 12/11
A3027 RMK AO2 RAE03 CIG 006V011 P0001 T01170106 TSNO





000
SAUS45 KFGZ 220920
MTRFLG
SPECI KFLG 220919Z AUTO 25003KT 10SM SCT003 OVC065 12/11 A3027 RMK
AO2 RAE03 P0001 T01170106 TSNO





000
SAUS45 KFGZ 220858 COR
MTRRQE
METAR KRQE 220853Z AUTO 07003KT 10SM SCT090 BKN110 14/11 A3025 RMK
AO2 SLP125 60003 T01390111 58007 TSNO





000
SAUS45 KFGZ 220858
MTRFLG
METAR KFLG 220857Z AUTO 23004KT 8SM -RA OVC060 12/11 A3027 RMK AO2
RAB00 SLP169 P0008 60008 T01170106 58008 TSNO





000
SAUS45 KFGZ 220814
MTRFLG
SPECI KFLG 220813Z AUTO 21006KT 10SM -RA FEW022 BKN048 OVC075 12/11
A3028 RMK AO2 RAB00 P0000 T01220106 TSNO





000
SAUS45 KFGZ 220758 COR
MTRRQE
METAR KRQE 220753Z AUTO 00000KT 10SM OVC080 14/12 A3026 RMK AO2
RAE15 SLP132 P0002 T01390117 TSNO





000
SAUS45 KFGZ 220758
MTRFLG
METAR KFLG 220757Z AUTO 14003KT 10SM SCT022 BKN029 OVC049 12/11
A3029 RMK AO2 SLP172 T01170106 TSNO





000
SAUS45 KFGZ 220748
MTRFLG
SPECI KFLG 220747Z AUTO 00000KT 10SM BKN029 BKN037 OVC049 12/11
A3029 RMK AO2 T01170106 TSNO





000
SAUS45 KFGZ 220658
MTRFLG
METAR KFLG 220657Z AUTO 00000KT 10SM FEW038 BKN070 OVC100 12/11
A3029 RMK AO2 SLP168 T01170106 402000078 TSNO





000
SAUS45 KFGZ 220558
MTRFLG
METAR KFLG 220557Z AUTO 00000KT 10SM SCT049 BKN060 OVC080 12/11
A3030 RMK AO2 SLP167 60003 T01220111 10133 20122 51006 TSNO





000
SAUS45 KFGZ 220458
MTRFLG
METAR KFLG 220457Z AUTO 00000KT 10SM OVC055 12/11 A3029 RMK AO2
SLP169 T01220111 TSNO





000
SAUS45 KFGZ 220358
MTRFLG
METAR KFLG 220357Z 00000KT 10SM OVC070 12/11 A3030 RMK AO2 SLP174
T01220111





000
SAUS45 KFGZ 220259 COR
MTRRQE
METAR KRQE 220253Z AUTO 25005KT 10SM -RA BKN080 OVC100 15/12 A3028
RMK AO2 SLP152 P0001 60003 T01500117 51012 TSNO





000
SAUS45 KFGZ 220258
MTRFLG
METAR KFLG 220257Z 31003KT 10SM FEW080 BKN090 OVC110 12/11 A3027 RMK
AO2 SLP175 60003 T01220111 58008





000
SAUS45 KFGZ 220158
MTRFLG
METAR KFLG 220157Z 10003KT 10SM SCT065 BKN075 OVC090 13/12 A3028 RMK
AO2 SLP185 T01280117





000
SAUS45 KFGZ 220102 COR
MTRRQE
METAR KRQE 220053Z AUTO 22007KT 10SM -RA OVC080 17/11 A3026 RMK AO2
SLP157 P0000 T01720111 TSNO





000
SAUS45 KFGZ 220059 COR
MTRRQE
METAR KRQE 220053Z AUTO 22007KT 10SM -RA OVC080 17/11 A3026 RMK AO2
SLP157 P0000 T01720111 TSNO





000
SAUS45 KFGZ 220058
MTRFLG
METAR KFLG 220057Z 00000KT 10SM BKN055 OVC070 13/11 A3030 RMK AO2
RAE34 SLP193 P0003 T01280111





000
SAUS45 KFGZ 220058 COR
MTRRQE
METAR KRQE 220053Z AUTO 22007KT 10SM -RA OVC080 17/11 A3026 RMK AO2
SLP157 P0000 T01720111 TSNO





000
SAUS45 KFGZ 212358 COR
MTRRQE
METAR KRQE 212353Z AUTO 29010G17KT 10SM -RA FEW050 BKN070 OVC085
19/08 A3024 RMK AO2 RAB40 SLP141 P0000 60000 T01940083 10261 20194
55001 TSNO





000
SAUS45 KFGZ 212358
MTRFLG
METAR KFLG 212357Z 22006KT 4SM RA BR FEW007 BKN050 OVC070 13/12
A3030 RMK AO2 SLP192 P0003 60025 T01330117 10200 20122 53002





000
SAUS45 KFGZ 212258
MTRFLG
METAR KFLG 212257Z 33006KT 4SM RA BR FEW023 BKN050 OVC070 12/11
A3029 RMK AO2 TSB11E57 SLP189 P0020 T01220106





000
SAUS45 KFGZ 212212
MTRFLG
SPECI KFLG 212211Z 33004KT 3SM TSRA FEW037 FEW047 OVC060 12/11 A3031
RMK AO2 TSB11 P0004 T01220106





000
SAUS45 KFGZ 212208
MTRFLG
SPECI KFLG 212207Z VRB03KT 2 1/2SM -RA FEW043 OVC060 12/11 A3031 RMK
AO2 P0002 T01220106 TSNO





000
SAUS45 KFGZ 212158
MTRFLG
METAR KFLG 212157Z 29004KT 6SM -TSRA OVC065 13/12 A3030 RMK AO2
SLP190 TS SE-SW MOV NE VIS SE-SW 2 P0001 T01330117





000
SAUS45 KFGZ 212058 COR
MTRRQE
METAR KRQE 212053Z AUTO 29005KT 10SM CLR 26/03 A3024 RMK AO2
RAB16E30 SLP122 P0000 60000 T02610028 56009 TSNO





000
SAUS45 KFGZ 212058
MTRFLG
METAR KFLG 212057Z 00000KT 10SM -TSRA OVC075 15/11 A3029 RMK AO2
RAB01E23B30 TSB46 SLP185 TS OVHD MOV N P0001 60001 T01500106 57002





000
SAUS45 KFGZ 212053
MTRFLG
SPECI KFLG 212052Z 17004KT 10SM -TSRA OVC070 15/09 A3030 RMK AO2
RAB01E23B30 TSB46 TS OVHD MOV N P0001





000
SAUS45 KFGZ 212030
MTRFLG
SPECI KFLG 212029Z 17007KT 10SM VCTS FEW055 BKN070 OVC085 17/09
A3029 RMK AO2 RAB01E23 OCNL LTGCG S P0000 T01670089





000
SAUS45 KFGZ 211959 COR
MTRRQE
METAR KRQE 211953Z AUTO 21006KT 10SM OVC085 25/03 A3024 RMK AO2
SLP123 T02500028 TSNO





000
SAUS45 KFGZ 211958
MTRFLG
METAR KFLG 211957Z 18009KT 7SM SCT060 OVC075 17/09 A3030 RMK AO2
RAB03E47 SLP181 P0000 T01670089





000
SAUS45 KFGZ 211858
MTRFLG
METAR KFLG 211857Z 09007KT 050V120 10SM BKN070 OVC120 19/07 A3030
RMK AO2 SLP177 TS SE LTGCG T01890072





000
SAUS45 KFGZ 211758
MTRFLG
METAR KFLG 211757Z 05006KT 10SM BKN070 19/07 A3031 RMK AO2 SLP177
T01940072 10200 20078 50003





000
SAUS45 KFGZ 211658
MTRFLG
METAR KFLG 211657Z 08004KT 10SM CLR 18/09 A3031 RMK AO2 SLP178
T01830089





000
SAUS45 KFGZ 211558
MTRFLG
METAR KFLG 211557Z 00000KT 10SM CLR 17/09 A3030 RMK AO2 SLP176
T01720089





000
SAUS45 KFGZ 211558 COR
MTRRQE
METAR KRQE 211553Z AUTO 00000KT 10SM CLR 20/04 A3028 RMK AO2 SLP135
T02000044 TSNO





000
SAUS45 KFGZ 211458
MTRFLG
METAR KFLG 211457Z 00000KT 10SM CLR 13/09 A3030 RMK AO2 SLP180
T01280089 51009





000
SAUS45 KFGZ 211358
MTRFLG
METAR KFLG 211357Z 00000KT 10SM CLR 09/07 A3029 RMK AO2 SLP181
T00940072 $





000
SAUS45 KFGZ 211357
MTRRQE
METAR KRQE 211353Z AUTO 20004KT 10SM SCT110 12/04 A3026 RMK AO2
SLP144 T01170039 TSNO





000
SAUS45 KFGZ 211258
MTRFLG
METAR KFLG 211257Z AUTO 00000KT 10SM CLR 08/07 A3027 RMK AO2 SLP170
T00830067 TSNO $





000
SAUS45 KFGZ 211258 COR
MTRRQE
METAR KRQE 211253Z AUTO 00000KT 10SM SCT110 12/03 A3025 RMK AO2
SLP133 T01170033 TSNO





000
SAUS45 KFGZ 211158
MTRFLG
METAR KFLG 211157Z AUTO 20003KT 10SM CLR 08/07 A3026 RMK AO2 SLP164
T00830067 10111 20078 58001 TSNO $





000
SAUS45 KFGZ 211058 COR
MTRRQE
METAR KRQE 211053Z AUTO 00000KT 10SM BKN090 OVC120 14/04 A3024 RMK
AO2 SLP118 T01440039 TSNO





000
SAUS45 KFGZ 211058
MTRFLG
METAR KFLG 211057Z AUTO 00000KT 10SM CLR 09/07 A3027 RMK AO2 SLP159
T00940072 TSNO $





000
SAUS45 KFGZ 210958
MTRFLG
METAR KFLG 210957Z AUTO 00000KT 10SM CLR 09/07 A3027 RMK AO2 SLP162
T00940072 TSNO $





000
SAUS45 KFGZ 210858
MTRFLG
METAR KFLG 210857Z AUTO 00000KT 10SM SCT095 09/08 A3027 RMK AO2
SLP163 T00940078 58002 TSNO $





000
SAUS45 KFGZ 210758
MTRFLG
METAR KFLG 210757Z AUTO 00000KT 10SM BKN090 10/08 A3027 RMK AO2
SLP162 T01000078 TSNO $





000
SAUS45 KFGZ 210658
MTRFLG
METAR KFLG 210657Z AUTO 00000KT 10SM CLR 10/08 A3028 RMK AO2 SLP165
T01000078 402170089 TSNO $





000
SAUS45 KFGZ 210658 COR
MTRRQE
METAR KRQE 210653Z AUTO 36004KT 10SM CLR 16/02 A3023 RMK AO2 SLP114
T01610017 402670094 TSNO





000
SAUS45 KFGZ 210558
MTRFLG
METAR KFLG 210557Z AUTO 00000KT 10SM CLR 11/08 A3028 RMK AO2 SLP166
T01060083 10200 20106 50011 TSNO $





000
SAUS45 KFGZ 210458
MTRFLG
METAR KFLG 210457Z AUTO 00000KT 10SM CLR 12/08 A3028 RMK AO2 SLP167
T01170083 TSNO $





000
SAUS45 KFGZ 210358 COR
MTRRQE
METAR KRQE 210353Z AUTO 06005KT 10SM CLR 19/03 A3020 RMK AO2 SLP107
T01940028 TSNO





000
SAUS45 KFGZ 210358
MTRFLG
METAR KFLG 210357Z AUTO 00000KT 10SM CLR 13/09 A3028 RMK AO2 SLP168
T01280089 TSNO $





000
SAUS45 KFGZ 210259
MTRFLG
METAR KFLG 210257Z 00000KT 10SM CLR 13/09 A3024 RMK AO2 SLP156
T01330089 53003 $





000
SAUS45 KFGZ 210258 COR
MTRRQE
METAR KRQE 210253Z AUTO 26004KT 10SM CLR 18/02 A3017 RMK AO2 SLP111
T01830022 53003 TSNO





000
SAUS45 KFGZ 210203 COR
MTRRQE
METAR KRQE 210153Z AUTO 27003KT 10SM CLR 23/02 A3015 RMK AO2 SLP098
T02280022 TSNO





000
SAUS45 KFGZ 210202 COR
MTRRQE
METAR KRQE 210153Z AUTO 27003KT 10SM CLR 23/02 A3015 RMK AO2 SLP098
T02280022 TSNO





000
SAUS45 KFGZ 210201 COR
MTRRQE
METAR KRQE 210153Z AUTO 27003KT 10SM CLR 23/02 A3015 RMK AO2 SLP098
T02280022 TSNO





000
SAUS45 KFGZ 210200 COR
MTRRQE
METAR KRQE 210153Z AUTO 27003KT 10SM CLR 23/02 A3015 RMK AO2 SLP098
T02280022 TSNO





000
SAUS45 KFGZ 210159 COR
MTRRQE
METAR KRQE 210153Z AUTO 27003KT 10SM CLR 23/02 A3015 RMK AO2 SLP098
T02280022 TSNO





000
SAUS45 KFGZ 210158 COR
MTRRQE
METAR KRQE 210153Z AUTO 27003KT 10SM CLR 23/02 A3015 RMK AO2 SLP098
T02280022 TSNO





000
SAUS45 KFGZ 210158
MTRFLG
METAR KFLG 210157Z 00000KT 10SM CLR 16/08 A3023 RMK AO2 SLP154
T01610078 $





000
SAUS45 KFGZ 210105 COR
MTRRQE
METAR KRQE 210053Z AUTO 27006KT 10SM CLR 24/01 A3015 RMK AO2 SLP105
T02440006 TSNO





000
SAUS45 KFGZ 210104 COR
MTRRQE
METAR KRQE 210053Z AUTO 27006KT 10SM CLR 24/01 A3015 RMK AO2 SLP105
T02440006 TSNO





000
SAUS45 KFGZ 210103 COR
MTRRQE
METAR KRQE 210053Z AUTO 27006KT 10SM CLR 24/01 A3015 RMK AO2 SLP105
T02440006 TSNO





000
SAUS45 KFGZ 210101 COR
MTRRQE
METAR KRQE 210053Z AUTO 27006KT 10SM CLR 24/01 A3015 RMK AO2 SLP105
T02440006 TSNO





000
SAUS45 KFGZ 210100 COR
MTRRQE
METAR KRQE 210053Z AUTO 27006KT 10SM CLR 24/01 A3015 RMK AO2 SLP105
T02440006 TSNO





000
SAUS45 KFGZ 210059 COR
MTRRQE
METAR KRQE 210053Z AUTO 27006KT 10SM CLR 24/01 A3015 RMK AO2 SLP105
T02440006 TSNO





000
SAUS45 KFGZ 210058
MTRFLG
METAR KFLG 210057Z 24007KT 10SM CLR 19/04 A3023 RMK AO2 SLP150
T01940044 $





000
SAUS45 KFGZ 210003 COR
MTRRQE
METAR KRQE 202353Z AUTO 28007KT 10SM CLR 26/02 A3016 RMK AO2 SLP101
T02610022 10267 20228 56012 TSNO





000
SAUS45 KFGZ 210002 COR
MTRRQE
METAR KRQE 202353Z AUTO 28007KT 10SM CLR 26/02 A3016 RMK AO2 SLP101
T02610022 10267 20228 56012 TSNO





000
SAUS45 KFGZ 210001 COR
MTRRQE
METAR KRQE 202353Z AUTO 28007KT 10SM CLR 26/02 A3016 RMK AO2 SLP101
T02610022 10267 20228 56012 TSNO





000
SAUS45 KFGZ 202359 COR
MTRRQE
METAR KRQE 202353Z AUTO 28007KT 10SM CLR 26/02 A3016 RMK AO2 SLP101
T02610022 10267 20228 56012 TSNO





000
SAUS45 KFGZ 202358 COR
MTRRQE
METAR KRQE 202353Z AUTO 28007KT 10SM CLR 26/02 A3016 RMK AO2 SLP101
T02610022 10267 20228 56012 TSNO





000
SAUS45 KFGZ 202358
MTRFLG
METAR KFLG 202357Z 24008KT 10SM CLR 20/09 A3023 RMK AO2 SLP145
T02000089 10217 20189 56008 $





000
SAUS45 KFGZ 202312
MTRFLG
SPECI KFLG 202311Z 25008G15KT 10SM FEW065 21/06 A3023 RMK AO2
T02110061 $





000
SAUS45 KFGZ 202306
MTRFLG
SPECI KFLG 202304Z 24010KT 1 3/4SM HZ FEW065 22/07 A3023 RMK AO2
T02170067 $





000
SAUS45 KFGZ 202301 COR
MTRRQE
METAR KRQE 202253Z AUTO 29008KT 10SM FEW075 27/02 A3016 RMK AO2
SLP097 T02670022 TSNO





000
SAUS45 KFGZ 202300 COR
MTRRQE
METAR KRQE 202253Z AUTO 29008KT 10SM FEW075 27/02 A3016 RMK AO2
SLP097 T02670022 TSNO





000
SAUS45 KFGZ 202259 COR
MTRRQE
METAR KRQE 202253Z AUTO 29008KT 10SM FEW075 27/02 A3016 RMK AO2
SLP097 T02670022 TSNO





000
SAUS45 KFGZ 202258 COR
MTRRQE
METAR KRQE 202253Z AUTO 29008KT 10SM FEW075 27/02 A3016 RMK AO2
SLP097 T02670022 TSNO





000
SAUS45 KFGZ 202258
MTRFLG
METAR KFLG 202257Z 20012KT 10SM SCT065 21/08 A3023 RMK AO2 SLP148
T02110083 $





000
SAUS45 KFGZ 202158
MTRFLG
METAR KFLG 202157Z 22010KT 10SM CLR 21/07 A3024 RMK AO2 SLP153
T02060072





000
SAUS45 KFGZ 202103 COR
MTRRQE
METAR KRQE 202053Z AUTO 26012KT 10SM SCT085 BKN110 24/06 A3020 RMK
AO2 WSHFT 1953 SLP110 T02440056 56007 TSNO





000
SAUS45 KFGZ 202102 COR
MTRRQE
METAR KRQE 202053Z AUTO 26012KT 10SM SCT085 BKN110 24/06 A3020 RMK
AO2 WSHFT 1953 SLP110 T02440056 56007 TSNO





000
SAUS45 KFGZ 202100 COR
MTRRQE
METAR KRQE 202053Z AUTO 26012KT 10SM SCT085 BKN110 24/06 A3020 RMK
AO2 WSHFT 1953 SLP110 T02440056 56007 TSNO





000
SAUS45 KFGZ 202059
MTRFLG
METAR KFLG 202057Z 36008KT 10SM BKN060 BKN075 OVC120 20/07 A3025 RMK
AO2 SLP155 T02000067 56007





000
SAUS45 KFGZ 202059 COR
MTRRQE
METAR KRQE 202053Z AUTO 26012KT 10SM SCT085 BKN110 24/06 A3020 RMK
AO2 WSHFT 1953 SLP110 T02440056 56007 TSNO





000
SAUS45 KFGZ 202019 COR
MTRRQE
SPECI KRQE 202013Z AUTO 31010G15KT 10SM BKN090 24/01 A3021 RMK AO2
WSHFT 1953 T02440011 TSNO





000
SAUS45 KFGZ 201959 COR
MTRRQE
METAR KRQE 201953Z AUTO 24012G17KT 10SM FEW095 26/03 A3020 RMK AO2
SLP107 T02560033 TSNO





000
SAUS45 KFGZ 201958
MTRFLG
METAR KFLG 201957Z 24008KT 10SM SCT055 BKN070 21/07 A3026 RMK AO2
SLP154 T02110067





000
SAUS45 KFGZ 201858
MTRFLG
METAR KFLG 201857Z 25011G18KT 10SM CLR 21/07 A3026 RMK AO2 SLP156
T02060072





000
SAUS45 KFGZ 201801 COR
MTRRQE
METAR KRQE 201753Z AUTO 29008KT 10SM SCT060 23/06 A3023 RMK AO2
SLP119 T02330061 10244 20094 58001 TSNO





000
SAUS45 KFGZ 201708
MTRFLG
SPECI KFLG 201706Z 24006KT 10SM FEW032 19/09 A3028 RMK AO2 T01890094
$





000
SAUS45 KFGZ 201703 COR
MTRRQE
METAR KRQE 201653Z AUTO 36010KT 10SM FEW055 22/06 A3023 RMK AO2
SLP119 T02220061 TSNO





000
SAUS45 KFGZ 201702 COR
MTRRQE
METAR KRQE 201653Z AUTO 36010KT 10SM FEW055 22/06 A3023 RMK AO2
SLP119 T02220061 TSNO





000
SAUS45 KFGZ 201702
MTRFLG
SPECI KFLG 201659Z VRB04KT 3/4SM HZ FEW032 18/10 A3028 RMK AO2 VIS
1/4V5 T01830100 $





000
SAUS45 KFGZ 201701 COR
MTRRQE
METAR KRQE 201653Z AUTO 36010KT 10SM FEW055 22/06 A3023 RMK AO2
SLP119 T02220061 TSNO





000
SAUS45 KFGZ 201602 COR
MTRRQE
METAR KRQE 201553Z AUTO 00000KT 10SM CLR 20/09 A3023 RMK AO2 SLP124
T02000089 TSNO





000
SAUS45 KFGZ 201601 COR
MTRRQE
METAR KRQE 201553Z AUTO 00000KT 10SM CLR 20/09 A3023 RMK AO2 SLP124
T02000089 TSNO





000
SAUS45 KFGZ 201600
MTRFLG
METAR KFLG 201557Z 24006KT 10SM SCT017 16/11 A3027 RMK AO2 SLP170
T01610106





000
SAUS45 KFGZ 201509
MTRFLG
SPECI KFLG 201508Z 23006KT 10SM SCT019 15/11 A3027 RMK AO2 T01500106





000
SAUS45 KFGZ 201502
MTRFLG
SPECI KFLG 201501Z 24006KT 1 1/2SM HZ BKN019 14/11 A3027 RMK AO2
T01440106





000
SAUS45 KFGZ 201458
MTRFLG
METAR KFLG 201457Z 23006KT 10SM SCT017 14/11 A3027 RMK AO2 SLP170
T01440111 51013





000
SAUS45 KFGZ 201358
MTRFLG
METAR KFLG 201357Z 00000KT 10SM SCT017 11/09 A3025 RMK AO2 SLP169
T01110094





000
SAUS45 KFGZ 201258
MTRFLG
METAR KFLG 201257Z 00000KT 10SM SCT017 10/09 A3024 RMK AO2 SLP163
T01000089





000
SAUS45 KFGZ 201249
MTRFLG
SPECI KFLG 201248Z AUTO 00000KT 10SM BKN016 10/09 A3023 RMK AO2
T01000089 TSNO





000
SAUS45 KFGZ 201237
MTRFLG
SPECI KFLG 201236Z AUTO 26003KT 10SM BKN014 10/09 A3023 RMK AO2
T01000089 TSNO





000
SAUS45 KFGZ 201230
MTRFLG
SPECI KFLG 201229Z AUTO 27004KT 10SM SCT014 10/09 A3023 RMK AO2
T01000089 TSNO





000
SAUS45 KFGZ 201208
MTRFLG
SPECI KFLG 201207Z AUTO 25005KT 10SM OVC014 10/09 A3022 RMK AO2
T01000089 TSNO





000
SAUS45 KFGZ 201158
MTRFLG
METAR KFLG 201157Z AUTO 23004KT 10SM OVC015 11/09 A3022 RMK AO2
SLP154 70078 T01060089 10117 20089 51008 TSNO





000
SAUS45 KFGZ 201158 COR
MTRRQE
METAR KRQE 201153Z AUTO 00000KT 10SM CLR 10/08 A3018 RMK AO2 SLP119
T01000078 10150 20100 53006 TSNO





000
SAUS45 KFGZ 201121
MTRFLG
SPECI KFLG 201120Z AUTO 00000KT 10SM BKN015 BKN022 09/08 A3022 RMK
AO2 T00940078 TSNO





000
SAUS45 KFGZ 201059
MTRFLG
METAR KFLG 201057Z AUTO 00000KT 10SM FEW022 SCT120 09/08 A3022 RMK
AO2 SLP157 T00890078 TSNO





000
SAUS45 KFGZ 200958
MTRFLG
METAR KFLG 200957Z AUTO 00000KT 10SM CLR 09/08 A3021 RMK AO2 SLP155
T00940083 TSNO





000
SAUS45 KFGZ 200858
MTRFLG
METAR KFLG 200857Z AUTO 00000KT 10SM FEW120 11/09 A3019 RMK AO2
SLP149 T01060089 51003 TSNO





000
SAUS45 KFGZ 200802 COR
MTRRQE
METAR KRQE 200753Z AUTO 00000KT 10SM BKN120 14/11 A3014 RMK AO2
SLP095 T01390106 TSNO





000
SAUS45 KFGZ 200800 COR
MTRRQE
METAR KRQE 200753Z AUTO 00000KT 10SM BKN120 14/11 A3014 RMK AO2
SLP095 T01390106 TSNO





000
SAUS45 KFGZ 200759 COR
MTRRQE
METAR KRQE 200753Z AUTO 00000KT 10SM BKN120 14/11 A3014 RMK AO2
SLP095 T01390106 TSNO





000
SAUS45 KFGZ 200758 COR
MTRRQE
METAR KRQE 200753Z AUTO 00000KT 10SM BKN120 14/11 A3014 RMK AO2
SLP095 T01390106 TSNO





000
SAUS45 KFGZ 200758
MTRFLG
METAR KFLG 200757Z AUTO 23003KT 10SM BKN120 11/09 A3019 RMK AO2
SLP148 T01110089 TSNO





000
SAUS45 KFGZ 200658
MTRFLG
METAR KFLG 200657Z AUTO 00000KT 10SM FEW120 11/09 A3019 RMK AO2
SLP144 T01110094 401610111 TSNO





000
SAUS45 KFGZ 200558
MTRFLG
METAR KFLG 200557Z AUTO 00000KT 10SM CLR 11/10 A3018 RMK AO2 SLP143
T01110100 10156 20111 50000 TSNO





000
SAUS45 KFGZ 200558 COR
MTRRQE
METAR KRQE 200553Z AUTO 19005KT 10SM CLR 15/11 A3015 RMK AO2 SLP094
T01500111 10217 20150 51006 TSNO





000
SAUS45 KFGZ 200529 COR
MTRRQE
SPECI KRQE 200523Z AUTO 21005KT 10SM FEW018 SCT024 BKN110 16/12
A3014 RMK AO2 T01560117 TSNO





000
SAUS45 KFGZ 200501 COR
MTRRQE
METAR KRQE 200453Z AUTO 21005KT 10SM BKN018 OVC023 17/12 A3014 RMK
AO2 SLP087 T01720122 TSNO





000
SAUS45 KFGZ 200459 COR
MTRRQE
METAR KRQE 200453Z AUTO 21005KT 10SM BKN018 OVC023 17/12 A3014 RMK
AO2 SLP087 T01720122 TSNO





000
SAUS45 KFGZ 200458 COR
MTRRQE
METAR KRQE 200453Z AUTO 21005KT 10SM BKN018 OVC023 17/12 A3014 RMK
AO2 SLP087 T01720122 TSNO





000
SAUS45 KFGZ 200458
MTRFLG
METAR KFLG 200457Z AUTO 00000KT 10SM SCT110 12/10 A3018 RMK AO2
SLP143 T01170100 TSNO





000
SAUS45 KFGZ 200429 COR
MTRRQE
SPECI KRQE 200424Z AUTO 21008KT 10SM BKN017 OVC120 17/12 A3014 RMK
AO2 T01720122 TSNO





000
SAUS45 KFGZ 200359 COR
MTRRQE
METAR KRQE 200353Z AUTO 21008KT 10SM FEW019 BKN110 17/12 A3014 RMK
AO2 SLP087 T01720122 TSNO





000
SAUS45 KFGZ 200359
MTRFLG
METAR KFLG 200357Z AUTO 00000KT 10SM OVC100 12/10 A3018 RMK AO2
SLP143 T01170100 TSNO





000
SAUS45 KFGZ 200258
MTRFLG
METAR KFLG 200257Z 00000KT 10SM FEW050 BKN065 OVC080 12/10 A3018 RMK
AO2 SLP139 T01220100 53013





000
SAUS45 KFGZ 200258 COR
MTRRQE
METAR KRQE 200253Z AUTO 21006KT 10SM OVC095 17/11 A3012 RMK AO2
SLP089 T01720111 51008 TSNO





000
SAUS45 KFGZ 200230
MTRFLG
SPECI KFLG 200228Z VRB05KT 10SM SCT016 OVC037 12/09 A3018 RMK AO2
T01220094





000
SAUS45 KFGZ 200158
MTRFLG
METAR KFLG 200157Z 22013KT 10SM SCT009 BKN016 BKN070 14/12 A3017 RMK
AO2 SLP132 T01390122





000
SAUS45 KFGZ 200122
MTRFLG
SPECI KFLG 200120Z AUTO 21008KT 10SM SCT007 BKN100 14/12 A3014 RMK
AO2 T01440122 TSNO





000
SAUS45 KFGZ 200110
MTRFLG
SPECI KFLG 200109Z 20008KT 10SM BKN007 OVC100 14/13 A3014 RMK AO2
T01440128





000
SAUS45 KFGZ 200058
MTRFLG
METAR KFLG 200057Z 22009KT 10SM SCT007 OVC100 15/13 A3014 RMK AO2
SLP121 T01500128





000
SAUS45 KFGZ 200032
MTRFLG
SPECI KFLG 200031Z 20009KT 10SM SCT008 BKN100 15/13 A3013 RMK AO2
T01500128





000
SAUS45 KFGZ 192359
MTRFLG
METAR KFLG 192357Z 21011KT 10SM BKN095 16/13 A3013 RMK AO2 SLP118
60031 T01560128 10161 20133 55015





000
SAUS45 KFGZ 192358 COR
MTRRQE
METAR KRQE 192353Z AUTO 22013KT 10SM SCT045 BKN060 BKN070 22/09
A3009 RMK AO2 SLP078 60000 T02170094 10228 20211 56015 TSNO





000
SAUS45 KFGZ 192259 COR
MTRRQE
METAR KRQE 192253Z AUTO 23010G15KT 10SM FEW042 22/10 A3009 RMK AO2
SLP078 T02220100 TSNO





000
SAUS45 KFGZ 192259
MTRFLG
METAR KFLG 192257Z 25004KT 10SM FEW090 16/12 A3012 RMK AO2 SLP116
T01560122





000
SAUS45 KFGZ 192258 COR
MTRRQE
METAR KRQE 192253Z AUTO 23010G15KT 10SM FEW042 22/10 A3009 RMK AO2
SLP078 T02220100 TSNO





000
SAUS45 KFGZ 192206
MTRFLG
SPECI KFLG 192204Z 23007KT 10SM FEW007 BKN095 14/13 A3015 RMK AO2
T01440128





000
SAUS45 KFGZ 192201 COR
MTRRQE
METAR KRQE 192153Z AUTO 25009G18KT 10SM CLR 22/10 A3011 RMK AO2
SLP081 T02170100 TSNO





000
SAUS45 KFGZ 192200 COR
MTRRQE
METAR KRQE 192153Z AUTO 25009G18KT 10SM CLR 22/10 A3011 RMK AO2
SLP081 T02170100 TSNO





000
SAUS45 KFGZ 192159 COR
MTRRQE
METAR KRQE 192153Z AUTO 25009G18KT 10SM CLR 22/10 A3011 RMK AO2
SLP081 T02170100 TSNO





000
SAUS45 KFGZ 192158
MTRFLG
METAR KFLG 192157Z 25008KT 10SM FEW012 BKN085 OVC100 14/12 A3016 RMK
AO2 RAE49 SLP129 P0008 T01440122





000
SAUS45 KFGZ 192158 COR
MTRRQE
METAR KRQE 192153Z AUTO 25009G18KT 10SM CLR 22/10 A3011 RMK AO2
SLP081 T02170100 TSNO





000
SAUS45 KFGZ 192143
MTRFLG
SPECI KFLG 192142Z 21007KT 10SM -RA FEW007 BKN080 OVC090 14/12 A3015
RMK AO2 PRESFR P0008 T01440122





000
SAUS45 KFGZ 192133
MTRFLG
SPECI KFLG 192132Z 24008KT 9SM -RA OVC075 14/13 A3017 RMK AO2 P0008
T01440133





000
SAUS45 KFGZ 192058
MTRFLG
METAR KFLG 192057Z 23009KT 2SM RA BR BKN007 BKN018 OVC070 14/13
A3019 RMK AO2 SLP143 P0004 60023 T01390128 55002





000
SAUS45 KFGZ 192058 COR
MTRRQE
METAR KRQE 192053Z AUTO 24009G16KT 10SM FEW039 SCT085 21/11 A3014
RMK AO2 RAE20 SLP090 P0000 60000 T02110106 56009 TSNO





000
SAUS45 KFGZ 192025
MTRFLG
SPECI KFLG 192024Z 22012KT 10SM -RA BKN005 BKN055 OVC080 14/13 A3018
RMK AO2 P0003 T01390128





000
SAUS45 KFGZ 191959 COR
MTRRQE
METAR KRQE 191953Z AUTO 22012G17KT 10SM -RA FEW040 BKN075 OVC090
22/11 A3016 RMK AO2 RAE05B51 SLP091 P0000 T02220111 TSNO





000
SAUS45 KFGZ 191959
MTRFLG
METAR KFLG 191957Z 20009KT 4SM RA BR SCT006 BKN047 OVC080 13/12
A3017 RMK AO2 SLP140 P0018 T01330122





000
SAUS45 KFGZ 191944
MTRFLG
SPECI KFLG 191943Z 22006KT 3SM RA BR FEW008 BKN046 OVC075 13/12
A3018 RMK AO2 P0014 T01330122





000
SAUS45 KFGZ 191939
MTRFLG
SPECI KFLG 191938Z 19003KT 2 1/2SM RA BR BKN048 OVC075 13/12 A3018
RMK AO2 P0012 T01330122





000
SAUS45 KFGZ 191927
MTRFLG
SPECI KFLG 191925Z 25003KT 1 3/4SM +RA BR SCT012 BKN046 OVC060 13/12
A3019 RMK AO2 P0006 T01330122





000
SAUS45 KFGZ 191920
MTRFLG
SPECI KFLG 191918Z 24006KT 3SM RA BR SCT012 BKN048 OVC060 13/12
A3020 RMK AO2 P0003 T01330117





000
SAUS45 KFGZ 191911
MTRFLG
SPECI KFLG 191910Z 24008KT 4SM RA BR BKN012 BKN060 OVC085 13/12
A3020 RMK AO2 P0002 T01330117





000
SAUS45 KFGZ 191859
MTRFLG
METAR KFLG 191857Z 25005KT 9SM -RA FEW014 BKN080 OVC090 14/12 A3019
RMK AO2 SLP144 P0001 T01390117





000
SAUS45 KFGZ 191758
MTRFLG
METAR KFLG 191757Z 17004KT 9SM -RA FEW070 OVC085 14/12 A3020 RMK AO2
SLP142 P0022 60047 T01390122 10144 20128 50000





000
SAUS45 KFGZ 191758 COR
MTRRQE
METAR KRQE 191753Z AUTO 25006KT 10SM BKN042 BKN065 OVC100 23/11
A3018 RMK AO2 SLP096 T02280106 10233 20128 55002 TSNO





000
SAUS45 KFGZ 191737
MTRFLG
SPECI KFLG 191735Z 18004KT 10SM -RA FEW007 BKN070 OVC085 14/12 A3021
RMK AO2 P0018 T01390122





000
SAUS45 KFGZ 191728
MTRFLG
SPECI KFLG 191727Z 21005KT 10SM -RA SCT011 BKN031 OVC085 14/12 A3021
RMK AO2 P0018 T01390122





000
SAUS45 KFGZ 191721
MTRFLG
SPECI KFLG 191720Z 19006G16KT 5SM -RA BR BKN008 BKN015 OVC028 14/12
A3021 RMK AO2 P0018 T01390122





000
SAUS45 KFGZ 191718
MTRFLG
SPECI KFLG 191717Z 19008G16KT 2SM -RA BR SCT006 BKN012 OVC024 13/12
A3022 RMK AO2 P0018 T01330122





000
SAUS45 KFGZ 191714
MTRFLG
SPECI KFLG 191712Z 21007KT 3/4SM +RA BR BKN009 BKN028 OVC070 13/12
A3021 RMK AO2 P0017 T01330122





000
SAUS45 KFGZ 191709
MTRFLG
SPECI KFLG 191708Z VRB06KT 1/2SM +RA FG SCT007 BKN029 OVC070 13/13
A3021 RMK AO2 P0012 T01330128





000
SAUS45 KFGZ 191702
MTRFLG
SPECI KFLG 191701Z 20007KT 1 3/4SM RA BR SCT009 BKN040 OVC075 13/13
A3021 RMK AO2 P0001 T01330128





000
SAUS45 KFGZ 191658
MTRFLG
METAR KFLG 191657Z 20007KT 3SM RA BR FEW006 BKN055 OVC070 14/13
A3021 RMK AO2 SLP148 P0014 T01390128





000
SAUS45 KFGZ 191641
MTRFLG
SPECI KFLG 191639Z 22008KT 3SM RA BR FEW007 BKN055 OVC075 13/12
A3021 RMK AO2 P0010 T01330122





000
SAUS45 KFGZ 191632
MTRFLG
SPECI KFLG 191631Z 21007KT 1 1/4SM +RA BR FEW007 BKN050 OVC075 13/12
A3021 RMK AO2 P0008 T01330122





000
SAUS45 KFGZ 191558 COR
MTRRQE
METAR KRQE 191553Z AUTO VRB04KT 10SM FEW090 22/09 A3018 RMK AO2
SLP093 T02170094 TSNO





000
SAUS45 KFGZ 191558
MTRFLG
METAR KFLG 191557Z AUTO 21009KT 7SM -RA SCT007 BKN060 OVC080 14/13
A3020 RMK AO2 RAB08 SLP140 P0004 T01390128 TSNO





000
SAUS45 KFGZ 191500 COR
MTRRQE
METAR KRQE 191453Z AUTO VRB03KT 10SM FEW085 19/09 A3019 RMK AO2
SLP102 T01940089 50002 TSNO





000
SAUS45 KFGZ 191458 COR
MTRRQE
METAR KRQE 191453Z AUTO VRB03KT 10SM FEW085 19/09 A3019 RMK AO2
SLP102 T01940089 50002 TSNO





000
SAUS45 KFGZ 191458
MTRFLG
METAR KFLG 191457Z AUTO 26006KT 10SM BKN005 OVC065 14/13 A3018 RMK
AO2 RAE49 SLP134 P0006 60007 T01390128 56003 TSNO





000
SAUS45 KFGZ 191457
MTRRQE
METAR KRQE 191453Z AUTO VRB03KT 10SM FEW085 19/09 A3019 RMK AO2
SLP102 T01940089 50002 TSNO





000
SAUS45 KFGZ 191358
MTRFLG
METAR KFLG 191357Z AUTO 20005KT 10SM -RA BKN007 OVC010 14/13 A3019
RMK AO2 RAE31B55 CIG 004V008 SLP137 P0001 T01390128 TSNO





000
SAUS45 KFGZ 191357
MTRRQE
METAR KRQE 191353Z AUTO 00000KT 10SM CLR 17/09 A3019 RMK AO2 SLP109
T01720094 TSNO





000
SAUS45 KFGZ 191258
MTRFLG
METAR KFLG 191257Z AUTO 06003KT 10SM -RA BKN009 BKN014 OVC110 13/12
A3018 RMK AO2 RAB27 SLP136 P0000 T01330122 TSNO





000
SAUS45 KFGZ 191251
MTRFLG
SPECI KFLG 191250Z AUTO 00000KT 10SM -RA BKN009 BKN110 13/12 A3018
RMK AO2 RAB27 CIG 009V018 P0000 T01330117 TSNO





000
SAUS45 KFGZ 191200 COR
MTRRQE
METAR KRQE 191153Z AUTO 19005KT 10SM CLR 15/08 A3018 RMK AO2 SLP106
T01500083 10189 20139 50002 TSNO





000
SAUS45 KFGZ 191158
MTRFLG
METAR KFLG 191157Z AUTO 21004KT 10SM BKN110 13/12 A3019 RMK AO2
SLP140 60000 70012 T01280117 10139 20117 55002 TSNO





000
SAUS45 KFGZ 191102 COR
MTRRQE
METAR KRQE 191053Z AUTO 00000KT 10SM CLR 14/07 A3019 RMK AO2 SLP097
T01440072 TSNO





000
SAUS45 KFGZ 191100 COR
MTRRQE
METAR KRQE 191053Z AUTO 00000KT 10SM CLR 14/07 A3019 RMK AO2 SLP097
T01440072 TSNO





000
SAUS45 KFGZ 191059 COR
MTRRQE
METAR KRQE 191053Z AUTO 00000KT 10SM CLR 14/07 A3019 RMK AO2 SLP097
T01440072 TSNO





000
SAUS45 KFGZ 191058
MTRFLG
METAR KFLG 191057Z AUTO 00000KT 10SM CLR 12/11 A3018 RMK AO2 SLP140
T01220111 TSNO





    US Dept of Commerce
    National Oceanic and Atmospheric Administration
    National Weather Service
    1325 East West Highway
    Silver Spring, MD 20910
    Page Author: NWS Internet Services Team
Disclaimer
Information Quality
Credits
Glossary
Privacy Policy
Freedom of Information Act (FOIA)
About Us
Career Opportunities